Time;durP1;ratioP1;P1;durP2;ratioP2;P2;SDS_P1;SDS_P2;PMS_P1;PMS_P2;Temp;Humidity;BMP_temperature;BMP_pressure;BME280_temperature;BME280_humidity;BME280_pressure;Samples;Min_cycle;Max_cycle;Signal;HPM_P1;HPM_P2
2023/08/10 00:00:59;;;;;;;1999.90;999.90;;;12.80;99.90;;;;;;4995325;28;20069;-79
2023/08/10 00:03:25;;;;;;;1999.90;999.90;;;12.70;99.90;;;;;;4995727;28;20042;-79
2023/08/10 00:05:53;;;;;;;1999.90;999.90;;;12.70;99.90;;;;;;4992963;28;20038;-79
2023/08/10 00:08:19;;;;;;;1999.90;999.90;;;12.70;99.90;;;;;;4993667;28;20498;-79
2023/08/10 00:10:50;;;;;;;1999.90;999.90;;;12.60;99.90;;;;;;4995527;28;20089;-78
2023/08/10 00:13:17;;;;;;;1999.90;999.90;;;12.60;99.90;;;;;;4994605;28;20046;-77
2023/08/10 00:15:43;;;;;;;1999.90;999.90;;;12.50;99.90;;;;;;4992646;28;20050;-77
2023/08/10 00:18:09;;;;;;;1999.90;999.90;;;12.50;99.90;;;;;;4993153;28;20035;-77
2023/08/10 00:20:35;;;;;;;1999.90;999.90;;;12.40;99.90;;;;;;4993774;28;20047;-77
2023/08/10 00:23:01;;;;;;;1999.90;999.90;;;12.30;99.90;;;;;;4992722;28;20039;-78
2023/08/10 00:25:26;;;;;;;1999.90;999.90;;;12.20;99.90;;;;;;4994202;28;20042;-76
2023/08/10 00:27:55;;;;;;;1999.90;999.90;;;12.20;99.90;;;;;;4994414;28;20492;-76
2023/08/10 00:30:21;;;;;;;1999.90;999.90;;;12.30;99.90;;;;;;4993845;28;20067;-78
2023/08/10 00:32:46;;;;;;;1999.90;999.90;;;12.20;99.90;;;;;;4993348;28;20117;-76
2023/08/10 00:35:13;;;;;;;1999.90;999.90;;;12.20;99.90;;;;;;4994348;28;20065;-77
2023/08/10 00:37:38;;;;;;;1999.90;999.90;;;12.20;99.90;;;;;;4994016;28;20452;-77
2023/08/10 00:40:05;;;;;;;1999.90;999.90;;;12.10;99.90;;;;;;4994221;28;20046;-77
2023/08/10 00:42:33;;;;;;;1999.90;999.90;;;12.10;99.90;;;;;;4992063;28;20042;-77
2023/08/10 00:44:59;;;;;;;1999.90;999.90;;;12.10;99.90;;;;;;4993821;28;20034;-77
2023/08/10 00:47:26;;;;;;;1999.90;999.90;;;12.10;99.90;;;;;;4993978;28;20442;-77
2023/08/10 00:49:52;;;;;;;1999.90;999.90;;;12.10;99.90;;;;;;4994043;28;20069;-76
2023/08/10 00:52:18;;;;;;;1999.90;999.90;;;12.10;99.90;;;;;;4992288;28;20036;-77
2023/08/10 00:54:45;;;;;;;1999.90;999.90;;;12.00;99.90;;;;;;4992181;28;20039;-77
2023/08/10 00:57:11;;;;;;;1999.90;999.90;;;12.00;99.90;;;;;;4993438;28;20381;-77
2023/08/10 00:59:38;;;;;;;1999.90;999.90;;;11.90;99.90;;;;;;4993844;28;20458;-77
2023/08/10 01:02:03;;;;;;;1999.90;999.90;;;11.90;99.90;;;;;;4989838;28;20088;-77
2023/08/10 01:04:29;;;;;;;1999.90;999.90;;;11.90;99.90;;;;;;4993512;28;20039;-77
2023/08/10 01:07:19;;;;;;;1999.90;999.90;;;11.80;99.90;;;;;;4992876;28;20035;-76
2023/08/10 01:10:07;;;;;;;1999.90;999.90;;;11.90;99.90;;;;;;4991849;28;20100;-77
2023/08/10 01:12:49;;;;;;;1999.90;999.90;;;11.70;99.90;;;;;;4990488;28;20039;-76
2023/08/10 01:15:23;;;;;;;1999.90;999.90;;;11.80;99.90;;;;;;4993398;28;20066;-77
2023/08/10 01:17:52;;;;;;;1999.90;999.90;;;11.70;99.90;;;;;;4993531;28;20045;-77
2023/08/10 01:20:25;;;;;;;1999.90;999.90;;;11.70;99.90;;;;;;4993883;28;20046;-76
2023/08/10 01:22:55;;;;;;;1999.90;999.90;;;11.70;99.90;;;;;;4992934;28;20031;-77
2023/08/10 01:25:22;;;;;;;1999.90;999.90;;;11.60;99.90;;;;;;4986490;28;20043;-78
2023/08/10 01:27:48;;;;;;;1999.90;999.90;;;11.60;99.90;;;;;;4993582;28;20104;-77
2023/08/10 01:30:14;;;;;;;1999.90;999.90;;;11.60;99.90;;;;;;4991940;28;20096;-77
2023/08/10 01:32:40;;;;;;;1999.90;999.90;;;11.60;99.90;;;;;;4992695;28;20496;-77
2023/08/10 01:35:06;;;;;;;1999.90;999.90;;;11.60;99.90;;;;;;4993469;28;20062;-76
2023/08/10 01:37:35;;;;;;;1999.90;999.90;;;11.60;99.90;;;;;;4993635;28;20035;-76
2023/08/10 01:40:01;;;;;;;1999.90;999.90;;;11.50;99.90;;;;;;4993592;28;20468;-77
2023/08/10 01:42:26;;;;;;;1999.90;999.90;;;11.50;99.90;;;;;;4991663;28;20042;-77
2023/08/10 01:44:52;;;;;;;1999.90;999.90;;;11.50;99.90;;;;;;4992898;28;20068;-77
2023/08/10 01:47:28;;;;;;;1999.90;999.90;;;11.50;99.90;;;;;;4991628;28;20389;-76
2023/08/10 01:49:56;;;;;;;1999.90;999.90;;;11.50;99.90;;;;;;4993330;28;20050;-76
2023/08/10 01:52:30;;;;;;;1999.90;999.90;;;11.40;99.90;;;;;;4992888;28;20038;-77
2023/08/10 01:54:56;;;;;;;1999.90;999.90;;;11.40;99.90;;;;;;4992866;28;20077;-77
2023/08/10 01:57:30;;;;;;;1999.90;999.90;;;11.30;99.90;;;;;;4992746;28;20092;-77
2023/08/10 01:59:56;;;;;;;1999.90;999.90;;;11.30;99.90;;;;;;4990198;28;20046;-77
2023/08/10 02:02:21;;;;;;;1999.90;999.90;;;11.20;99.90;;;;;;4992832;28;20181;-76
2023/08/10 02:04:47;;;;;;;1999.90;999.90;;;11.20;99.90;;;;;;4992792;28;20088;-77
2023/08/10 02:07:13;;;;;;;1999.90;999.90;;;11.20;99.90;;;;;;4993355;28;20035;-77
2023/08/10 02:09:40;;;;;;;1999.90;999.90;;;11.20;99.90;;;;;;4993084;28;20042;-77
2023/08/10 02:12:06;;;;;;;1999.90;999.90;;;11.20;99.90;;;;;;4991377;28;20508;-76
2023/08/10 02:14:34;;;;;;;1999.90;999.90;;;11.20;99.90;;;;;;4992551;28;20129;-76
2023/08/10 02:16:59;;;;;;;1999.90;999.90;;;11.20;99.90;;;;;;4992168;28;20038;-76
2023/08/10 02:19:25;;;;;;;1999.90;999.90;;;11.20;99.90;;;;;;4993239;28;20038;-77
2023/08/10 02:21:51;;;;;;;1999.90;999.90;;;11.20;99.90;;;;;;4993549;28;20042;-77
2023/08/10 02:24:16;;;;;;;1999.90;999.90;;;11.10;99.90;;;;;;4993028;28;20026;-76
2023/08/10 02:26:42;;;;;;;1999.90;999.90;;;11.10;99.90;;;;;;4993251;28;20026;-77
2023/08/10 02:29:08;;;;;;;1999.90;999.90;;;11.00;99.90;;;;;;4993162;28;20576;-77
2023/08/10 02:31:33;;;;;;;1999.90;999.90;;;11.00;99.90;;;;;;4992517;28;20046;-77
2023/08/10 02:33:59;;;;;;;1999.90;999.90;;;11.00;99.90;;;;;;4992884;28;20038;-76
2023/08/10 02:36:24;;;;;;;1999.90;999.90;;;11.00;99.90;;;;;;4993091;28;20035;-77
2023/08/10 02:38:50;;;;;;;1999.90;999.90;;;11.00;99.90;;;;;;4993228;28;20446;-77
2023/08/10 02:41:15;;;;;;;1999.90;999.90;;;11.00;99.90;;;;;;4992992;28;20400;-76
2023/08/10 02:43:41;;;;;;;1999.90;999.90;;;11.00;99.90;;;;;;4992874;28;20407;-77
2023/08/10 02:46:08;;;;;;;1999.90;999.90;;;11.00;99.90;;;;;;4991130;28;20037;-77
2023/08/10 02:48:33;;;;;;;1999.90;999.90;;;11.00;99.90;;;;;;4991571;28;20047;-77
2023/08/10 02:50:59;;;;;;;1999.90;999.90;;;11.00;99.90;;;;;;4991538;28;20047;-77
2023/08/10 02:53:24;;;;;;;1999.90;999.90;;;10.90;99.90;;;;;;4992708;28;20554;-77
2023/08/10 02:55:50;;;;;;;1999.90;999.90;;;10.80;99.90;;;;;;4992767;28;20110;-76
2023/08/10 02:58:15;;;;;;;1999.90;999.90;;;10.80;99.90;;;;;;4992851;28;20437;-76
2023/08/10 03:00:41;;;;;;;1999.90;999.90;;;10.80;99.90;;;;;;4992774;28;20599;-76
2023/08/10 03:03:07;;;;;;;1999.90;999.90;;;10.70;99.90;;;;;;4992805;28;20401;-76
2023/08/10 03:05:33;;;;;;;1999.90;999.90;;;10.80;99.90;;;;;;4992530;28;20069;-76
2023/08/10 03:07:58;;;;;;;1999.90;999.90;;;10.70;99.90;;;;;;4992629;28;20122;-77
2023/08/10 03:10:24;;;;;;;1999.90;999.90;;;10.70;99.90;;;;;;4992236;28;20133;-77
2023/08/10 03:12:49;;;;;;;1999.90;999.90;;;10.80;99.90;;;;;;4991148;28;20441;-76
2023/08/10 03:15:15;;;;;;;1999.90;999.90;;;10.70;99.90;;;;;;4992338;28;20034;-77
2023/08/10 03:17:40;;;;;;;1999.90;999.90;;;10.80;99.90;;;;;;4991122;28;20035;-76
2023/08/10 03:20:12;;;;;;;1999.90;999.90;;;10.80;99.90;;;;;;4991059;28;20492;-76
2023/08/10 03:22:41;;;;;;;1999.90;999.90;;;10.80;99.90;;;;;;4992693;28;20099;-76
2023/08/10 03:25:07;;;;;;;1999.90;999.90;;;10.70;99.90;;;;;;4992294;28;20035;-76
2023/08/10 03:27:33;;;;;;;1999.90;999.90;;;10.70;99.90;;;;;;4992488;28;20114;-76
2023/08/10 03:29:58;;;;;;;1999.90;999.90;;;10.70;99.90;;;;;;4990807;28;20488;-76
2023/08/10 03:32:24;;;;;;;1999.90;999.90;;;10.70;99.90;;;;;;4991768;28;20499;-77
2023/08/10 03:34:49;;;;;;;1999.90;999.90;;;10.70;99.90;;;;;;4992017;28;20065;-76
2023/08/10 03:37:15;;;;;;;1999.90;999.90;;;10.70;99.90;;;;;;4991179;28;20114;-77
2023/08/10 03:39:40;;;;;;;1999.90;999.90;;;10.70;99.90;;;;;;4992182;28;20035;-76
2023/08/10 03:42:06;;;;;;;1999.90;999.90;;;10.70;99.90;;;;;;4990914;28;20053;-76
2023/08/10 03:44:35;;;;;;;1999.90;999.90;;;10.70;99.90;;;;;;4991994;28;20500;-76
2023/08/10 03:47:00;;;;;;;1999.90;999.90;;;10.80;99.90;;;;;;4992390;28;20124;-76
2023/08/10 03:49:26;;;;;;;1999.90;999.90;;;10.70;99.90;;;;;;4992319;28;20181;-76
2023/08/10 03:51:51;;;;;;;1999.90;999.90;;;10.70;99.90;;;;;;4992439;28;20046;-77
2023/08/10 03:54:17;;;;;;;1999.90;999.90;;;10.70;99.90;;;;;;4991948;28;20034;-77
2023/08/10 03:56:43;;;;;;;1999.90;999.90;;;10.70;99.90;;;;;;4990614;28;20035;-77
2023/08/10 03:59:10;;;;;;;1999.90;999.90;;;10.70;99.90;;;;;;4990550;28;20042;-76
2023/08/10 04:01:36;;;;;;;1999.90;999.90;;;10.70;99.90;;;;;;4990686;28;20035;-78
2023/08/10 04:04:01;;;;;;;1999.90;999.90;;;10.70;99.90;;;;;;4991326;28;20511;-76
2023/08/10 04:06:27;;;;;;;1999.90;999.90;;;10.70;99.90;;;;;;4989650;28;20035;-76
2023/08/10 04:08:53;;;;;;;1999.90;999.90;;;10.70;99.90;;;;;;4990233;28;20043;-76
2023/08/10 04:11:19;;;;;;;1999.90;999.90;;;10.80;99.90;;;;;;4990612;28;20058;-77
2023/08/10 04:13:46;;;;;;;1999.90;999.90;;;10.80;99.90;;;;;;4991459;28;20089;-76
2023/08/10 04:16:11;;;;;;;1999.90;999.90;;;10.80;99.90;;;;;;4990603;28;20084;-77
2023/08/10 04:18:37;;;;;;;1999.90;999.90;;;10.80;99.90;;;;;;4991768;28;20046;-76
2023/08/10 04:21:03;;;;;;;1999.90;999.90;;;10.80;99.90;;;;;;4991883;28;20114;-76
2023/08/10 04:23:28;;;;;;;1999.90;999.90;;;10.90;99.90;;;;;;4991618;28;20484;-76
2023/08/10 04:25:54;;;;;;;1999.90;999.90;;;10.90;99.90;;;;;;4989970;28;20080;-76
2023/08/10 04:28:19;;;;;;;1999.90;999.90;;;10.90;99.90;;;;;;4991586;28;20043;-76
2023/08/10 04:30:45;;;;;;;1999.90;999.90;;;11.00;99.90;;;;;;4991711;28;20789;-76
2023/08/10 04:33:10;;;;;;;1999.90;999.90;;;11.00;99.90;;;;;;4989452;28;20436;-76
2023/08/10 04:35:36;;;;;;;1999.90;999.90;;;11.10;99.90;;;;;;4989769;28;20042;-77
2023/08/10 04:38:02;;;;;;;1999.90;999.90;;;11.10;99.90;;;;;;4991587;28;20062;-76
2023/08/10 04:40:27;;;;;;;1999.90;999.90;;;11.10;99.90;;;;;;4990850;28;20031;-76
2023/08/10 04:42:53;;;;;;;1999.90;999.90;;;11.10;99.90;;;;;;4994292;28;20098;-77
2023/08/10 04:45:19;;;;;;;1999.90;999.90;;;11.00;99.90;;;;;;4994404;28;20391;-76
2023/08/10 04:47:45;;;;;;;1999.90;999.90;;;11.10;99.90;;;;;;4994545;28;20027;-76
2023/08/10 04:50:11;;;;;;;1999.90;999.90;;;11.10;99.90;;;;;;4994491;28;20046;-77
2023/08/10 04:52:38;;;;;;;1999.90;999.90;;;11.10;99.90;;;;;;4994377;28;20030;-78
2023/08/10 04:55:05;;;;;;;1999.90;999.90;;;11.30;99.90;;;;;;4994196;28;20115;-77
2023/08/10 04:57:31;;;;;;;1999.90;999.90;;;11.30;99.90;;;;;;4992738;28;20031;-76
2023/08/10 04:59:56;;;;;;;1999.90;999.90;;;11.40;99.90;;;;;;4994416;28;20035;-77
2023/08/10 05:02:22;;;;;;;1999.90;999.90;;;11.40;99.90;;;;;;4994310;28;20046;-77
2023/08/10 05:04:48;;;;;;;1999.90;999.90;;;11.50;99.90;;;;;;4994140;28;20027;-77
2023/08/10 05:07:14;;;;;;;1999.90;999.90;;;11.40;99.90;;;;;;4994342;28;20039;-76
2023/08/10 05:09:39;;;;;;;1999.90;999.90;;;11.40;99.90;;;;;;4994179;28;20121;-76
2023/08/10 05:12:05;;;;;;;1999.90;999.90;;;11.40;99.90;;;;;;4993775;28;20062;-77
2023/08/10 05:14:30;;;;;;;1999.90;999.90;;;11.30;99.90;;;;;;4993691;28;20043;-77
2023/08/10 05:16:56;;;;;;;1999.90;999.90;;;11.40;99.90;;;;;;4994185;28;20040;-76
2023/08/10 05:19:21;;;;;;;1999.90;999.90;;;11.40;99.90;;;;;;4994063;28;20042;-77
2023/08/10 05:21:47;;;;;;;1999.90;999.90;;;11.40;99.90;;;;;;4993951;28;20031;-76
2023/08/10 05:24:12;;;;;;;1999.90;999.90;;;11.40;99.90;;;;;;4992267;28;20086;-76
2023/08/10 05:26:38;;;;;;;1999.90;999.90;;;11.50;99.90;;;;;;4993923;28;20037;-76
2023/08/10 05:29:04;;;;;;;1999.90;999.90;;;11.50;99.90;;;;;;4992529;28;20407;-77
2023/08/10 05:31:29;;;;;;;1999.90;999.90;;;11.50;99.90;;;;;;4992486;28;20059;-76
2023/08/10 05:33:55;;;;;;;1999.90;999.90;;;11.50;99.90;;;;;;4993278;28;20523;-77
2023/08/10 05:36:20;;;;;;;1999.90;999.90;;;11.60;99.90;;;;;;4993854;28;20391;-77
2023/08/10 05:38:46;;;;;;;1999.90;999.90;;;11.60;99.90;;;;;;4993899;28;20485;-76
2023/08/10 05:41:11;;;;;;;1999.90;999.90;;;11.60;99.90;;;;;;4992258;28;20492;-76
2023/08/10 05:43:37;;;;;;;1999.90;999.90;;;11.70;99.90;;;;;;4993746;28;20049;-76
2023/08/10 05:46:02;;;;;;;1999.90;999.90;;;11.70;99.90;;;;;;4993683;28;20045;-76
2023/08/10 05:48:28;;;;;;;1999.90;999.90;;;11.90;99.90;;;;;;4993133;28;20030;-77
2023/08/10 05:50:54;;;;;;;1999.90;999.90;;;12.20;99.90;;;;;;4993886;28;20045;-77
2023/08/10 05:53:19;;;;;;;1999.90;999.90;;;12.40;99.90;;;;;;4992487;28;20034;-77
2023/08/10 05:55:45;;;;;;;1999.90;999.90;;;12.60;99.90;;;;;;4993274;28;20042;-77
2023/08/10 05:58:10;;;;;;;1999.90;999.90;;;12.80;99.90;;;;;;4992129;28;20030;-77
2023/08/10 06:00:36;;;;;;;1999.90;999.90;;;12.90;99.90;;;;;;4993612;28;20046;-76
2023/08/10 06:03:03;;;;;;;1999.90;999.90;;;13.00;99.90;;;;;;4993799;28;20503;-76
2023/08/10 06:05:32;;;;;;;1999.90;999.90;;;13.20;99.90;;;;;;4993162;28;20039;-78
2023/08/10 06:07:59;;;;;;;1999.90;999.90;;;13.30;99.90;;;;;;4993548;28;20104;-77
2023/08/10 06:10:25;;;;;;;1999.90;999.90;;;13.40;99.90;;;;;;4993434;28;20114;-77
2023/08/10 06:12:50;;;;;;;1999.90;999.90;;;13.60;99.90;;;;;;4991743;28;20078;-75
2023/08/10 06:15:16;;;;;;;1999.90;999.90;;;13.70;99.90;;;;;;4993303;28;20121;-77
2023/08/10 06:17:42;;;;;;;1999.90;999.90;;;13.90;99.90;;;;;;4993549;28;20045;-77
2023/08/10 06:20:09;;;;;;;1999.90;999.90;;;14.00;99.90;;;;;;4993347;28;20065;-77
2023/08/10 06:22:36;;;;;;;1999.90;999.90;;;14.00;99.90;;;;;;4993078;28;20031;-77
2023/08/10 06:25:02;;;;;;;1999.90;999.90;;;14.00;99.90;;;;;;4992852;28;20100;-77
2023/08/10 06:27:27;;;;;;;1999.90;999.90;;;14.10;99.90;;;;;;4993297;28;20510;-77
2023/08/10 06:29:53;;;;;;;1999.90;999.90;;;14.20;99.90;;;;;;4993114;28;20042;-77
2023/08/10 06:32:18;;;;;;;1999.90;999.90;;;14.30;99.90;;;;;;4992108;28;20038;-77
2023/08/10 06:34:44;;;;;;;1999.90;999.90;;;14.40;99.90;;;;;;4991710;28;20400;-77
2023/08/10 06:37:10;;;;;;;1999.90;999.90;;;14.50;99.90;;;;;;4993000;28;20684;-77
2023/08/10 06:39:35;;;;;;;1999.90;999.90;;;14.70;99.90;;;;;;4993256;28;20034;-77
2023/08/10 06:42:02;;;;;;;1999.90;999.90;;;14.80;99.90;;;;;;4993529;28;20127;-77
2023/08/10 06:44:29;;;;;;;1999.90;999.90;;;14.80;99.90;;;;;;4992884;28;20100;-77
2023/08/10 06:46:54;;;;;;;1999.90;999.90;;;14.80;99.90;;;;;;4993189;28;20122;-77
2023/08/10 06:49:21;;;;;;;1999.90;999.90;;;14.90;99.90;;;;;;4993112;28;20099;-77
2023/08/10 06:51:47;;;;;;;1999.90;999.90;;;14.90;99.90;;;;;;4993205;28;20080;-77
2023/08/10 06:54:13;;;;;;;1999.90;999.90;;;15.10;99.90;;;;;;4992720;28;20497;-77
2023/08/10 06:56:38;;;;;;;1999.90;999.90;;;15.40;99.90;;;;;;4993080;28;20043;-77
2023/08/10 06:59:04;;;;;;;1999.90;999.90;;;15.50;99.90;;;;;;4992775;28;20045;-77
2023/08/10 07:01:30;;;;;;;1999.90;999.90;;;15.80;99.90;;;;;;4993113;28;20038;-77
2023/08/10 07:03:56;;;;;;;1999.90;999.90;;;15.70;99.90;;;;;;4990668;28;20042;-80
2023/08/10 07:06:21;;;;;;;1999.90;999.90;;;15.70;99.90;;;;;;4992972;28;20135;-77
2023/08/10 07:08:48;;;;;;;1999.90;999.90;;;15.80;99.90;;;;;;4991494;28;20039;-77
2023/08/10 07:11:14;;;;;;;1999.90;999.90;;;15.90;99.90;;;;;;4992827;28;20030;-77
2023/08/10 07:13:41;;;;;;;1999.90;999.90;;;16.00;99.90;;;;;;4992831;28;20034;-77
2023/08/10 07:16:06;;;;;;;1999.90;999.90;;;16.20;99.90;;;;;;4992803;28;20053;-77
2023/08/10 07:18:32;;;;;;;1999.90;999.90;;;16.50;99.90;;;;;;4992947;28;20070;-77
2023/08/10 07:20:58;;;;;;;1999.90;999.90;;;16.80;99.90;;;;;;4992674;28;20030;-77
2023/08/10 07:23:23;;;;;;;1999.90;999.90;;;17.00;99.90;;;;;;4992599;28;20054;-78
2023/08/10 07:25:54;;;;;;;1999.90;999.90;;;16.80;99.90;;;;;;4992352;28;20096;-77
2023/08/10 07:28:23;;;;;;;1999.90;999.90;;;16.90;99.90;;;;;;4992896;28;20471;-77
2023/08/10 07:30:52;;;;;;;1999.90;999.90;;;17.10;99.90;;;;;;4992542;28;20071;-78
2023/08/10 07:33:17;;;;;;;1999.90;999.90;;;17.30;99.90;;;;;;4991893;28;20043;-77
2023/08/10 07:35:44;;;;;;;1999.90;999.90;;;17.40;99.90;;;;;;4992366;28;20092;-77
2023/08/10 07:38:14;;;;;;;1999.90;999.90;;;17.50;99.90;;;;;;4992464;28;20042;-77
2023/08/10 07:40:40;;;;;;;1999.90;999.90;;;17.60;99.90;;;;;;4992695;28;20534;-77
2023/08/10 07:43:06;;;;;;;1999.90;999.90;;;17.50;99.90;;;;;;4991722;28;20497;-77
2023/08/10 07:45:31;;;;;;;1999.90;999.90;;;17.60;99.90;;;;;;4992094;28;20043;-77
2023/08/10 07:47:57;;;;;;;1999.90;999.90;;;17.90;99.90;;;;;;4992751;28;20400;-78
2023/08/10 07:50:22;;;;;;;1999.90;999.90;;;18.00;99.90;;;;;;4992547;28;20361;-79
2023/08/10 07:52:48;;;;;;;1999.90;999.90;;;17.60;99.90;;;;;;4993081;28;20030;-79
2023/08/10 07:55:15;;;;;;;1999.90;999.90;;;17.70;99.90;;;;;;4990668;28;20045;-80
2023/08/10 07:57:41;;;;;;;1999.90;999.90;;;17.90;99.90;;;;;;4992428;28;20026;-79
2023/08/10 08:00:07;;;;;;;1999.90;999.90;;;17.90;99.90;;;;;;4992092;28;20496;-79
2023/08/10 08:02:33;;;;;;;1999.90;999.90;;;18.10;99.90;;;;;;4994007;28;20129;-79
2023/08/10 08:04:59;;;;;;;1999.90;999.90;;;18.20;99.90;;;;;;4990816;28;20154;-78
2023/08/10 08:07:25;;;;;;;1999.90;999.90;;;18.60;99.90;;;;;;4992052;28;20055;-78
2023/08/10 08:09:52;;;;;;;1999.90;999.90;;;18.90;99.90;;;;;;4991898;28;20080;-78
2023/08/10 08:12:18;;;;;;;1999.90;999.90;;;19.00;99.90;;;;;;4991460;28;20512;-78
2023/08/10 08:14:44;;;;;;;1999.90;999.90;;;19.10;99.90;;;;;;4991748;28;20062;-78
2023/08/10 08:17:10;;;;;;;1999.90;999.90;;;19.20;99.90;;;;;;4994919;28;20045;-78
2023/08/10 08:19:36;;;;;;;1999.90;999.90;;;19.20;99.90;;;;;;4995099;28;20077;-80
2023/08/10 08:22:02;;;;;;;1999.90;999.90;;;19.40;99.90;;;;;;4995031;28;20086;-79
2023/08/10 08:24:28;;;;;;;1999.90;999.90;;;19.80;99.90;;;;;;4994201;28;20452;-79
2023/08/10 08:26:56;;;;;;;1999.90;999.90;;;20.10;99.90;;;;;;4994839;28;20497;-79
2023/08/10 08:29:22;;;;;;;1999.90;999.90;;;20.40;99.90;;;;;;4994668;28;20050;-78
2023/08/10 08:31:48;;;;;;;1999.90;999.90;;;20.40;99.90;;;;;;4994749;28;20039;-78
2023/08/10 08:34:14;;;;;;;1999.90;999.90;;;20.20;99.90;;;;;;5014605;22;20042;-75
2023/08/10 08:36:40;;;;;;;1999.90;999.90;;;20.40;99.90;;;;;;4993343;28;20043;-74
2023/08/10 08:39:06;;;;;;;1999.90;999.90;;;20.80;99.90;;;;;;4994594;28;20031;-75
2023/08/10 08:41:38;;;;;;;1999.90;999.90;;;21.20;99.90;;;;;;4994860;28;20039;-74
2023/08/10 08:44:08;;;;;;;1999.90;999.90;;;21.30;99.90;;;;;;4994098;28;20412;-74
2023/08/10 08:46:37;;;;;;;1999.90;999.90;;;21.40;99.90;;;;;;4992942;28;20039;-75
2023/08/10 08:49:05;;;;;;;1999.90;999.90;;;21.20;99.90;;;;;;4992985;28;20066;-75
2023/08/10 08:51:31;;;;;;;1999.90;999.90;;;21.00;99.90;;;;;;4994158;28;20126;-75
2023/08/10 08:54:02;;;;;;;1999.90;999.90;;;21.10;99.90;;;;;;4994124;28;20035;-74
2023/08/10 08:56:27;;;;;;;1999.90;999.90;;;20.70;99.90;;;;;;4991732;28;20038;-75
2023/08/10 08:58:53;;;;;;;1999.90;999.90;;;20.70;99.90;;;;;;4994343;28;20388;-75
2023/08/10 09:01:20;;;;;;;1999.90;999.90;;;20.80;99.90;;;;;;4993912;28;20541;-75
2023/08/10 09:03:46;;;;;;;1999.90;999.90;;;20.90;99.90;;;;;;4992772;28;20437;-72
2023/08/10 09:06:11;;;;;;;1999.90;999.90;;;21.20;99.90;;;;;;5010773;28;20041;-73
2023/08/10 09:08:38;;;;;;;1999.90;999.90;;;21.00;99.90;;;;;;5011443;28;20395;-74
2023/08/10 09:11:05;;;;;;;1999.90;999.90;;;21.30;99.90;;;;;;5013251;28;20053;-74
2023/08/10 09:13:31;;;;;;;1999.90;999.90;;;21.40;99.90;;;;;;5011685;28;20161;-74
2023/08/10 09:16:05;;;;;;;1999.90;999.90;;;21.60;99.90;;;;;;5012878;28;20079;-74
2023/08/10 09:18:35;;;;;;;1999.90;999.90;;;22.00;99.90;;;;;;5013480;28;20052;-74
2023/08/10 09:21:18;;;;;;;1999.90;999.90;;;22.00;99.90;;;;;;5012640;28;20039;-73
2023/08/10 09:23:47;;;;;;;1999.90;999.90;;;22.10;99.90;;;;;;5012996;28;20034;-71
2023/08/10 09:26:16;;;;;;;1999.90;999.90;;;21.80;99.90;;;;;;5025320;28;20033;-71
2023/08/10 09:28:42;;;;;;;1999.90;999.90;;;21.50;99.90;;;;;;5001638;28;20104;-72
2023/08/10 09:31:10;;;;;;;1999.90;999.90;;;21.60;99.90;;;;;;4992251;28;20446;-73
2023/08/10 09:33:37;;;;;;;1999.90;999.90;;;22.00;99.90;;;;;;4993344;28;20031;-72
2023/08/10 09:36:05;;;;;;;1999.90;999.90;;;22.00;99.90;;;;;;4993710;28;20534;-72
2023/08/10 09:38:31;;;;;;;1999.90;999.90;;;21.80;99.90;;;;;;4993393;28;20031;-72
2023/08/10 09:41:11;;;;;;;1999.90;999.90;;;21.70;99.90;;;;;;4993340;28;20763;-73
2023/08/10 09:43:43;;;;;;;1999.90;999.90;;;21.70;99.90;;;;;;4992290;28;20518;-73
2023/08/10 09:46:11;;;;;;;1999.90;999.90;;;22.20;99.90;;;;;;4993656;28;20097;-72
2023/08/10 09:48:38;;;;;;;1999.90;999.90;;;22.20;99.90;;;;;;4993331;28;20062;-73
2023/08/10 09:51:08;;;;;;;1999.90;999.90;;;22.30;99.90;;;;;;4993405;28;20043;-71
2023/08/10 09:53:35;;;;;;;1999.90;999.90;;;22.70;99.90;;;;;;4993416;28;20038;-72
2023/08/10 09:56:02;;;;;;;1999.90;999.90;;;23.10;99.90;;;;;;4993252;28;20035;-71
2023/08/10 09:58:29;;;;;;;1999.90;999.90;;;23.30;99.90;;;;;;4993779;28;20480;-71
2023/08/10 10:00:55;;;;;;;1999.90;999.90;;;23.30;99.90;;;;;;4993517;28;20831;-72
2023/08/10 10:03:22;;;;;;;1999.90;999.90;;;23.10;99.90;;;;;;4991803;28;20035;-76
2023/08/10 10:05:49;;;;;;;1999.90;999.90;;;23.20;99.90;;;;;;4990387;28;20583;-72
2023/08/10 10:08:16;;;;;;;1999.90;999.90;;;23.30;99.90;;;;;;4992814;28;20031;-72
2023/08/10 10:10:44;;;;;;;1999.90;999.90;;;23.20;99.90;;;;;;4986583;28;20130;-73
2023/08/10 10:13:15;;;;;;;1999.90;999.90;;;23.30;99.90;;;;;;4990988;28;20114;-72
2023/08/10 10:15:44;;;;;;;1999.90;999.90;;;23.20;99.90;;;;;;4992854;28;20059;-72
2023/08/10 10:18:11;;;;;;;1999.90;999.90;;;23.10;99.90;;;;;;4992912;28;20074;-73
2023/08/10 10:20:39;;;;;;;1999.90;999.90;;;23.10;99.90;;;;;;4992747;28;20046;-72
2023/08/10 10:23:13;;;;;;;1999.90;999.90;;;23.30;99.90;;;;;;4990771;28;20035;-72
2023/08/10 10:25:39;;;;;;;1999.90;999.90;;;23.60;99.90;;;;;;4992746;28;20487;-72
2023/08/10 10:28:16;;;;;;;1999.90;999.90;;;23.60;99.90;;;;;;4992350;28;20030;-73
2023/08/10 10:30:56;;;;;;;1999.90;999.90;;;23.50;99.90;;;;;;4987357;28;20479;-72
2023/08/10 10:33:24;;;;;;;1999.90;999.90;;;23.40;99.90;;;;;;4992017;28;20085;-72
2023/08/10 10:36:12;;;;;;;1999.90;999.90;;;24.00;99.90;;;;;;4991912;28;20121;-73
2023/08/10 10:38:46;;;;;;;1999.90;999.90;;;24.40;99.90;;;;;;4991179;28;20555;-72
2023/08/10 10:41:17;;;;;;;1999.90;999.90;;;24.70;99.90;;;;;;4990813;28;20125;-73
2023/08/10 10:43:46;;;;;;;1999.90;999.90;;;24.70;99.90;;;;;;4992325;28;20369;-72
2023/08/10 10:46:32;;;;;;;1999.90;999.90;;;24.50;99.90;;;;;;4992163;28;20051;-73
2023/08/10 10:48:58;;;;;;;1999.90;999.90;;;24.70;99.90;;;;;;4998015;28;20848;-72
2023/08/10 10:51:25;;;;;;;1999.90;999.90;;;24.70;99.90;;;;;;4992254;28;20555;-74
2023/08/10 10:53:54;;;;;;;1999.90;999.90;;;24.40;97.60;;;;;;4990491;28;20419;-73
2023/08/10 10:56:20;;;;;;;1999.90;999.90;;;24.30;99.90;;;;;;4992184;28;20038;-72
2023/08/10 10:58:47;;;;;;;1999.90;999.90;;;24.40;99.90;;;;;;4992155;28;20046;-72
2023/08/10 11:01:22;;;;;;;1999.90;999.90;;;23.80;99.90;;;;;;4992253;28;20027;-73
2023/08/10 11:03:55;;;;;;;1999.90;999.90;;;23.70;99.90;;;;;;4991099;28;20050;-73
2023/08/10 11:06:23;;;;;;;1999.90;999.90;;;24.00;99.90;;;;;;4986719;28;20129;-72
2023/08/10 11:08:54;;;;;;;1999.90;999.90;;;24.40;99.90;;;;;;4991343;28;20046;-72
2023/08/10 11:11:21;;;;;;;1999.90;999.90;;;24.60;99.90;;;;;;4995435;28;20519;-72
2023/08/10 11:13:47;;;;;;;1999.90;999.90;;;24.80;99.40;;;;;;4990183;28;20504;-72
2023/08/10 11:16:13;;;;;;;1999.90;999.90;;;24.90;98.30;;;;;;4991536;28;20479;-72
2023/08/10 11:18:39;;;;;;;1999.90;999.90;;;25.30;99.30;;;;;;4992284;28;20084;-73
2023/08/10 11:21:08;;;;;;;1999.90;999.90;;;25.40;97.30;;;;;;4990595;28;20062;-72
2023/08/10 11:23:34;;;;;;;1999.90;999.90;;;25.50;99.90;;;;;;4991975;28;20779;-74
2023/08/10 11:26:02;;;;;;;1999.90;999.90;;;25.80;96.90;;;;;;4991731;28;20530;-72
2023/08/10 11:28:28;;;;;;;1999.90;999.90;;;26.00;95.50;;;;;;4992339;28;20027;-74
2023/08/10 11:31:00;;;;;;;1999.90;999.90;;;25.70;96.50;;;;;;4996811;28;20042;-74
2023/08/10 11:33:25;;;;;;;1999.90;999.90;;;25.90;95.10;;;;;;5011005;28;20042;-74
2023/08/10 11:35:52;;;;;;;1999.90;999.90;;;25.60;96.00;;;;;;5011964;28;20031;-72
2023/08/10 11:38:18;;;;;;;1999.90;999.90;;;25.20;95.80;;;;;;5010659;28;20030;-74
2023/08/10 11:40:45;;;;;;;1999.90;999.90;;;25.40;95.20;;;;;;5011958;28;20127;-74
2023/08/10 11:43:14;;;;;;;1999.90;999.90;;;25.60;93.70;;;;;;5010164;28;20031;-74
2023/08/10 11:45:41;;;;;;;1999.90;999.90;;;25.80;93.60;;;;;;5011927;28;20035;-73
2023/08/10 11:48:11;;;;;;;1999.90;999.90;;;25.80;95.60;;;;;;5011902;28;20129;-76
2023/08/10 11:50:38;;;;;;;1999.90;999.90;;;26.30;94.00;;;;;;5014623;28;20042;-75
2023/08/10 11:53:20;;;;;;;1999.90;999.90;;;26.60;95.70;;;;;;5014261;28;20833;-75
2023/08/10 11:55:53;;;;;;;1999.90;999.90;;;26.50;92.90;;;;;;5014987;28;20042;-75
2023/08/10 11:58:19;;;;;;;1999.90;999.90;;;26.40;92.90;;;;;;5013802;28;20037;-75